sensor_id;sensor_type;location;lat;lon;timestamp;P1;durP1;ratioP1;P2;durP2;ratioP2
11255;SDS011;5685;52.384;13.420;2023-04-01T00:01:33;73.90;;;40.00;;
11255;SDS011;5685;52.384;13.420;2023-04-01T00:04:36;73.50;;;39.87;;
11255;SDS011;5685;52.384;13.420;2023-04-01T00:07:39;73.87;;;40.00;;
11255;SDS011;5685;52.384;13.420;2023-04-01T00:10:44;73.80;;;39.93;;
11255;SDS011;5685;52.384;13.420;2023-04-01T00:13:47;73.87;;;40.03;;
11255;SDS011;5685;52.384;13.420;2023-04-01T00:16:50;74.00;;;40.10;;
11255;SDS011;5685;52.384;13.420;2023-04-01T00:19:54;73.70;;;40.07;;
11255;SDS011;5685;52.384;13.420;2023-04-01T00:22:56;73.90;;;40.10;;
11255;SDS011;5685;52.384;13.420;2023-04-01T00:26:01;73.97;;;40.10;;
11255;SDS011;5685;52.384;13.420;2023-04-01T00:29:04;73.93;;;40.00;;
11255;SDS011;5685;52.384;13.420;2023-04-01T00:32:07;73.80;;;40.00;;
11255;SDS011;5685;52.384;13.420;2023-04-01T00:35:09;73.53;;;39.90;;
11255;SDS011;5685;52.384;13.420;2023-04-01T00:38:12;73.77;;;39.97;;
11255;SDS011;5685;52.384;13.420;2023-04-01T00:41:18;73.90;;;40.00;;
11255;SDS011;5685;52.384;13.420;2023-04-01T00:44:22;73.77;;;40.00;;
11255;SDS011;5685;52.384;13.420;2023-04-01T00:47:26;73.70;;;39.90;;
11255;SDS011;5685;52.384;13.420;2023-04-01T00:50:28;74.00;;;40.23;;
11255;SDS011;5685;52.384;13.420;2023-04-01T00:53:33;73.37;;;39.83;;
11255;SDS011;5685;52.384;13.420;2023-04-01T00:56:39;74.00;;;40.10;;
11255;SDS011;5685;52.384;13.420;2023-04-01T00:59:45;73.20;;;39.70;;
11255;SDS011;5685;52.384;13.420;2023-04-01T01:02:49;73.67;;;39.97;;
11255;SDS011;5685;52.384;13.420;2023-04-01T01:05:57;73.87;;;40.10;;
11255;SDS011;5685;52.384;13.420;2023-04-01T01:09:13;73.87;;;40.00;;
11255;SDS011;5685;52.384;13.420;2023-04-01T01:12:25;73.27;;;39.70;;
11255;SDS011;5685;52.384;13.420;2023-04-01T01:15:30;73.47;;;39.87;;
11255;SDS011;5685;52.384;13.420;2023-04-01T01:18:37;73.77;;;40.10;;
11255;SDS011;5685;52.384;13.420;2023-04-01T01:21:46;73.17;;;39.73;;
11255;SDS011;5685;52.384;13.420;2023-04-01T01:25:00;73.37;;;39.90;;
11255;SDS011;5685;52.384;13.420;2023-04-01T01:28:20;73.33;;;39.80;;
11255;SDS011;5685;52.384;13.420;2023-04-01T01:31:33;72.67;;;39.60;;
11255;SDS011;5685;52.384;13.420;2023-04-01T01:34:40;72.90;;;39.67;;
11255;SDS011;5685;52.384;13.420;2023-04-01T01:37:47;73.07;;;39.73;;
11255;SDS011;5685;52.384;13.420;2023-04-01T01:40:52;73.77;;;40.00;;
11255;SDS011;5685;52.384;13.420;2023-04-01T01:43:57;73.70;;;39.93;;
11255;SDS011;5685;52.384;13.420;2023-04-01T01:47:02;73.23;;;39.67;;
11255;SDS011;5685;52.384;13.420;2023-04-01T01:50:05;73.47;;;39.80;;
11255;SDS011;5685;52.384;13.420;2023-04-01T01:53:11;73.63;;;39.97;;
11255;SDS011;5685;52.384;13.420;2023-04-01T01:56:14;73.47;;;39.87;;
11255;SDS011;5685;52.384;13.420;2023-04-01T01:59:20;73.30;;;39.73;;
11255;SDS011;5685;52.384;13.420;2023-04-01T02:02:23;73.60;;;39.93;;
11255;SDS011;5685;52.384;13.420;2023-04-01T02:05:26;73.47;;;39.80;;
11255;SDS011;5685;52.384;13.420;2023-04-01T02:08:32;73.57;;;39.90;;
11255;SDS011;5685;52.384;13.420;2023-04-01T02:11:39;73.57;;;39.83;;
11255;SDS011;5685;52.384;13.420;2023-04-01T02:14:45;73.53;;;39.90;;
11255;SDS011;5685;52.384;13.420;2023-04-01T02:17:51;73.60;;;39.80;;
11255;SDS011;5685;52.384;13.420;2023-04-01T02:20:54;74.07;;;40.07;;
11255;SDS011;5685;52.384;13.420;2023-04-01T02:24:00;74.03;;;40.07;;
11255;SDS011;5685;52.384;13.420;2023-04-01T02:27:05;73.83;;;39.93;;
11255;SDS011;5685;52.384;13.420;2023-04-01T02:30:08;73.80;;;39.90;;
11255;SDS011;5685;52.384;13.420;2023-04-01T02:33:11;73.90;;;39.87;;
11255;SDS011;5685;52.384;13.420;2023-04-01T02:36:14;73.90;;;39.90;;
11255;SDS011;5685;52.384;13.420;2023-04-01T02:39:19;73.60;;;39.70;;
11255;SDS011;5685;52.384;13.420;2023-04-01T02:42:22;74.10;;;39.97;;
11255;SDS011;5685;52.384;13.420;2023-04-01T02:45:25;73.93;;;39.90;;
11255;SDS011;5685;52.384;13.420;2023-04-01T02:48:28;74.27;;;40.00;;
11255;SDS011;5685;52.384;13.420;2023-04-01T02:51:31;74.00;;;39.80;;
11255;SDS011;5685;52.384;13.420;2023-04-01T02:54:35;74.03;;;40.00;;
11255;SDS011;5685;52.384;13.420;2023-04-01T02:57:37;74.33;;;40.00;;
11255;SDS011;5685;52.384;13.420;2023-04-01T03:00:40;73.83;;;39.70;;
11255;SDS011;5685;52.384;13.420;2023-04-01T03:03:43;74.17;;;39.83;;
11255;SDS011;5685;52.384;13.420;2023-04-01T03:06:45;74.27;;;40.00;;
11255;SDS011;5685;52.384;13.420;2023-04-01T03:09:50;74.27;;;39.80;;
11255;SDS011;5685;52.384;13.420;2023-04-01T03:12:52;74.23;;;39.83;;
11255;SDS011;5685;52.384;13.420;2023-04-01T03:15:55;74.30;;;39.80;;
11255;SDS011;5685;52.384;13.420;2023-04-01T03:18:58;74.20;;;39.87;;
11255;SDS011;5685;52.384;13.420;2023-04-01T03:22:02;73.83;;;39.70;;
11255;SDS011;5685;52.384;13.420;2023-04-01T03:25:06;74.00;;;39.80;;
11255;SDS011;5685;52.384;13.420;2023-04-01T03:28:09;74.10;;;39.87;;
11255;SDS011;5685;52.384;13.420;2023-04-01T03:31:12;74.40;;;40.00;;
11255;SDS011;5685;52.384;13.420;2023-04-01T03:34:16;73.87;;;39.90;;
11255;SDS011;5685;52.384;13.420;2023-04-01T03:37:18;73.90;;;39.80;;
11255;SDS011;5685;52.384;13.420;2023-04-01T03:40:22;74.57;;;39.93;;
11255;SDS011;5685;52.384;13.420;2023-04-01T03:43:26;74.30;;;39.80;;
11255;SDS011;5685;52.384;13.420;2023-04-01T03:46:29;74.40;;;39.80;;
11255;SDS011;5685;52.384;13.420;2023-04-01T03:49:32;74.17;;;39.77;;
11255;SDS011;5685;52.384;13.420;2023-04-01T03:52:35;74.00;;;39.70;;
11255;SDS011;5685;52.384;13.420;2023-04-01T03:55:39;74.70;;;40.07;;
11255;SDS011;5685;52.384;13.420;2023-04-01T03:58:42;74.30;;;39.80;;
11255;SDS011;5685;52.384;13.420;2023-04-01T04:01:45;74.20;;;39.73;;
11255;SDS011;5685;52.384;13.420;2023-04-01T04:04:48;74.70;;;40.00;;
11255;SDS011;5685;52.384;13.420;2023-04-01T04:07:51;74.57;;;39.90;;
11255;SDS011;5685;52.384;13.420;2023-04-01T04:10:56;74.47;;;39.80;;
11255;SDS011;5685;52.384;13.420;2023-04-01T04:13:58;74.73;;;39.93;;
11255;SDS011;5685;52.384;13.420;2023-04-01T04:17:02;74.90;;;39.90;;
11255;SDS011;5685;52.384;13.420;2023-04-01T04:20:06;74.47;;;39.77;;
11255;SDS011;5685;52.384;13.420;2023-04-01T04:23:09;74.50;;;39.97;;
11255;SDS011;5685;52.384;13.420;2023-04-01T04:26:14;74.57;;;39.83;;
11255;SDS011;5685;52.384;13.420;2023-04-01T04:29:17;74.37;;;39.77;;
11255;SDS011;5685;52.384;13.420;2023-04-01T04:32:19;74.60;;;39.80;;
11255;SDS011;5685;52.384;13.420;2023-04-01T04:35:22;74.47;;;39.70;;
11255;SDS011;5685;52.384;13.420;2023-04-01T04:38:25;74.10;;;39.70;;
11255;SDS011;5685;52.384;13.420;2023-04-01T04:41:29;74.33;;;39.77;;
11255;SDS011;5685;52.384;13.420;2023-04-01T04:44:32;74.37;;;39.77;;
11255;SDS011;5685;52.384;13.420;2023-04-01T04:47:35;74.33;;;39.80;;
11255;SDS011;5685;52.384;13.420;2023-04-01T04:50:37;74.07;;;39.70;;
11255;SDS011;5685;52.384;13.420;2023-04-01T04:53:42;74.13;;;39.63;;
11255;SDS011;5685;52.384;13.420;2023-04-01T04:56:47;74.73;;;39.90;;
11255;SDS011;5685;52.384;13.420;2023-04-01T04:59:49;74.57;;;39.87;;
11255;SDS011;5685;52.384;13.420;2023-04-01T05:02:52;74.37;;;39.73;;
11255;SDS011;5685;52.384;13.420;2023-04-01T05:05:55;74.77;;;39.83;;
11255;SDS011;5685;52.384;13.420;2023-04-01T05:08:58;74.10;;;39.60;;
11255;SDS011;5685;52.384;13.420;2023-04-01T05:12:02;74.73;;;39.90;;
11255;SDS011;5685;52.384;13.420;2023-04-01T05:15:05;74.60;;;39.80;;
11255;SDS011;5685;52.384;13.420;2023-04-01T05:18:09;74.47;;;39.80;;
11255;SDS011;5685;52.384;13.420;2023-04-01T05:21:12;74.53;;;39.77;;
11255;SDS011;5685;52.384;13.420;2023-04-01T05:24:16;74.47;;;39.80;;
11255;SDS011;5685;52.384;13.420;2023-04-01T05:27:20;74.57;;;39.90;;
11255;SDS011;5685;52.384;13.420;2023-04-01T05:30:23;74.23;;;39.73;;
11255;SDS011;5685;52.384;13.420;2023-04-01T05:33:25;74.53;;;39.73;;
11255;SDS011;5685;52.384;13.420;2023-04-01T05:36:28;74.40;;;39.73;;
11255;SDS011;5685;52.384;13.420;2023-04-01T05:39:31;74.70;;;40.00;;
11255;SDS011;5685;52.384;13.420;2023-04-01T05:42:35;74.30;;;39.67;;
11255;SDS011;5685;52.384;13.420;2023-04-01T05:45:37;74.13;;;39.67;;
11255;SDS011;5685;52.384;13.420;2023-04-01T05:48:40;74.40;;;39.90;;
11255;SDS011;5685;52.384;13.420;2023-04-01T05:51:42;74.10;;;39.70;;
11255;SDS011;5685;52.384;13.420;2023-04-01T05:54:45;74.30;;;39.87;;
11255;SDS011;5685;52.384;13.420;2023-04-01T05:57:49;73.97;;;39.60;;
11255;SDS011;5685;52.384;13.420;2023-04-01T06:00:52;74.00;;;39.70;;
11255;SDS011;5685;52.384;13.420;2023-04-01T06:04:02;74.37;;;39.80;;
11255;SDS011;5685;52.384;13.420;2023-04-01T06:07:10;74.40;;;39.87;;
11255;SDS011;5685;52.384;13.420;2023-04-01T06:10:14;74.60;;;39.80;;
11255;SDS011;5685;52.384;13.420;2023-04-01T06:13:21;74.67;;;39.80;;
11255;SDS011;5685;52.384;13.420;2023-04-01T06:16:35;74.57;;;39.80;;
11255;SDS011;5685;52.384;13.420;2023-04-01T06:19:47;74.80;;;39.90;;
11255;SDS011;5685;52.384;13.420;2023-04-01T06:23:06;74.50;;;39.73;;
11255;SDS011;5685;52.384;13.420;2023-04-01T06:26:23;74.83;;;39.90;;
11255;SDS011;5685;52.384;13.420;2023-04-01T06:29:37;74.90;;;39.90;;
11255;SDS011;5685;52.384;13.420;2023-04-01T06:33:06;74.90;;;39.80;;
11255;SDS011;5685;52.384;13.420;2023-04-01T06:36:25;74.33;;;39.67;;
11255;SDS011;5685;52.384;13.420;2023-04-01T06:43:03;74.40;;;39.70;;
11255;SDS011;5685;52.384;13.420;2023-04-01T06:46:14;74.63;;;39.70;;
11255;SDS011;5685;52.384;13.420;2023-04-01T06:49:25;74.20;;;39.60;;
11255;SDS011;5685;52.384;13.420;2023-04-01T06:52:39;74.47;;;39.70;;
11255;SDS011;5685;52.384;13.420;2023-04-01T06:55:46;74.40;;;39.60;;
11255;SDS011;5685;52.384;13.420;2023-04-01T06:58:50;74.30;;;39.60;;
11255;SDS011;5685;52.384;13.420;2023-04-01T07:01:57;74.67;;;39.73;;
11255;SDS011;5685;52.384;13.420;2023-04-01T07:05:01;74.70;;;39.70;;
11255;SDS011;5685;52.384;13.420;2023-04-01T07:08:05;74.23;;;39.63;;
11255;SDS011;5685;52.384;13.420;2023-04-01T07:11:11;74.77;;;39.80;;
11255;SDS011;5685;52.384;13.420;2023-04-01T07:14:19;74.50;;;39.73;;
11255;SDS011;5685;52.384;13.420;2023-04-01T07:17:25;74.40;;;39.67;;
11255;SDS011;5685;52.384;13.420;2023-04-01T07:20:30;74.27;;;39.60;;
11255;SDS011;5685;52.384;13.420;2023-04-01T07:23:36;74.40;;;39.73;;
11255;SDS011;5685;52.384;13.420;2023-04-01T07:26:41;74.70;;;39.87;;
11255;SDS011;5685;52.384;13.420;2023-04-01T07:29:44;74.30;;;39.67;;
11255;SDS011;5685;52.384;13.420;2023-04-01T07:32:49;74.43;;;39.73;;
11255;SDS011;5685;52.384;13.420;2023-04-01T07:35:54;74.30;;;39.70;;
11255;SDS011;5685;52.384;13.420;2023-04-01T07:39:05;74.77;;;39.80;;
11255;SDS011;5685;52.384;13.420;2023-04-01T07:42:15;74.63;;;39.70;;
11255;SDS011;5685;52.384;13.420;2023-04-01T07:45:26;74.20;;;39.60;;
11255;SDS011;5685;52.384;13.420;2023-04-01T07:48:34;74.10;;;39.57;;
11255;SDS011;5685;52.384;13.420;2023-04-01T07:51:40;74.33;;;39.90;;
11255;SDS011;5685;52.384;13.420;2023-04-01T07:54:48;74.60;;;39.80;;
11255;SDS011;5685;52.384;13.420;2023-04-01T07:57:56;74.60;;;39.80;;
11255;SDS011;5685;52.384;13.420;2023-04-01T08:01:05;74.73;;;39.80;;
11255;SDS011;5685;52.384;13.420;2023-04-01T08:07:39;74.20;;;39.70;;
11255;SDS011;5685;52.384;13.420;2023-04-01T08:10:47;74.63;;;39.80;;
11255;SDS011;5685;52.384;13.420;2023-04-01T08:13:53;74.50;;;39.80;;
11255;SDS011;5685;52.384;13.420;2023-04-01T08:17:04;74.57;;;39.90;;
11255;SDS011;5685;52.384;13.420;2023-04-01T08:20:16;74.23;;;39.60;;
11255;SDS011;5685;52.384;13.420;2023-04-01T08:23:25;74.90;;;39.90;;
11255;SDS011;5685;52.384;13.420;2023-04-01T08:26:30;74.70;;;39.80;;
11255;SDS011;5685;52.384;13.420;2023-04-01T08:29:37;74.73;;;39.73;;
11255;SDS011;5685;52.384;13.420;2023-04-01T08:32:44;75.03;;;40.00;;
11255;SDS011;5685;52.384;13.420;2023-04-01T08:35:54;74.60;;;39.80;;
11255;SDS011;5685;52.384;13.420;2023-04-01T08:39:02;74.57;;;39.77;;
11255;SDS011;5685;52.384;13.420;2023-04-01T08:42:27;74.47;;;39.80;;
11255;SDS011;5685;52.384;13.420;2023-04-01T08:45:42;74.53;;;39.83;;
11255;SDS011;5685;52.384;13.420;2023-04-01T08:49:07;74.67;;;39.90;;
11255;SDS011;5685;52.384;13.420;2023-04-01T08:52:31;74.30;;;39.70;;
11255;SDS011;5685;52.384;13.420;2023-04-01T08:59:16;74.90;;;39.90;;
11255;SDS011;5685;52.384;13.420;2023-04-01T09:02:40;74.40;;;39.70;;
11255;SDS011;5685;52.384;13.420;2023-04-01T09:09:42;74.13;;;39.77;;
11255;SDS011;5685;52.384;13.420;2023-04-01T09:13:19;74.60;;;39.87;;
11255;SDS011;5685;52.384;13.420;2023-04-01T09:16:36;74.37;;;39.70;;
11255;SDS011;5685;52.384;13.420;2023-04-01T09:20:05;74.77;;;39.87;;
11255;SDS011;5685;52.384;13.420;2023-04-01T09:23:24;74.53;;;39.67;;
11255;SDS011;5685;52.384;13.420;2023-04-01T09:26:50;75.07;;;40.30;;
11255;SDS011;5685;52.384;13.420;2023-04-01T09:37:18;74.40;;;39.80;;
11255;SDS011;5685;52.384;13.420;2023-04-01T09:40:24;74.23;;;39.80;;
11255;SDS011;5685;52.384;13.420;2023-04-01T09:43:42;74.20;;;39.80;;
11255;SDS011;5685;52.384;13.420;2023-04-01T09:47:00;74.67;;;39.90;;
11255;SDS011;5685;52.384;13.420;2023-04-01T09:50:16;74.27;;;39.70;;
11255;SDS011;5685;52.384;13.420;2023-04-01T09:53:41;73.80;;;39.50;;
11255;SDS011;5685;52.384;13.420;2023-04-01T10:04:26;73.97;;;39.50;;
11255;SDS011;5685;52.384;13.420;2023-04-01T10:07:59;74.30;;;39.80;;
11255;SDS011;5685;52.384;13.420;2023-04-01T10:11:22;74.33;;;39.80;;
11255;SDS011;5685;52.384;13.420;2023-04-01T10:14:35;74.20;;;39.80;;
11255;SDS011;5685;52.384;13.420;2023-04-01T10:17:59;74.30;;;39.80;;
11255;SDS011;5685;52.384;13.420;2023-04-01T10:21:31;74.20;;;39.70;;
11255;SDS011;5685;52.384;13.420;2023-04-01T10:25:14;74.07;;;39.60;;
11255;SDS011;5685;52.384;13.420;2023-04-01T10:28:40;74.30;;;39.80;;
11255;SDS011;5685;52.384;13.420;2023-04-01T10:32:15;74.23;;;39.80;;
11255;SDS011;5685;52.384;13.420;2023-04-01T10:35:48;74.17;;;39.80;;
11255;SDS011;5685;52.384;13.420;2023-04-01T10:46:53;74.13;;;39.70;;
11255;SDS011;5685;52.384;13.420;2023-04-01T11:01:14;73.67;;;39.47;;
11255;SDS011;5685;52.384;13.420;2023-04-01T11:08:33;74.17;;;39.80;;
11255;SDS011;5685;52.384;13.420;2023-04-01T11:12:16;74.07;;;39.80;;
11255;SDS011;5685;52.384;13.420;2023-04-01T11:16:03;74.10;;;39.73;;
11255;SDS011;5685;52.384;13.420;2023-04-01T11:19:34;73.83;;;39.67;;
11255;SDS011;5685;52.384;13.420;2023-04-01T11:26:32;74.23;;;39.80;;
11255;SDS011;5685;52.384;13.420;2023-04-01T11:33:19;73.97;;;39.80;;
11255;SDS011;5685;52.384;13.420;2023-04-01T11:36:30;73.83;;;39.60;;
11255;SDS011;5685;52.384;13.420;2023-04-01T11:39:40;73.83;;;39.70;;
11255;SDS011;5685;52.384;13.420;2023-04-01T11:42:49;73.87;;;39.60;;
11255;SDS011;5685;52.384;13.420;2023-04-01T11:45:56;74.03;;;39.70;;
11255;SDS011;5685;52.384;13.420;2023-04-01T11:49:05;74.30;;;39.90;;
11255;SDS011;5685;52.384;13.420;2023-04-01T11:55:45;74.13;;;39.70;;
11255;SDS011;5685;52.384;13.420;2023-04-01T11:58:58;74.17;;;39.70;;
11255;SDS011;5685;52.384;13.420;2023-04-01T12:02:20;74.47;;;39.90;;
11255;SDS011;5685;52.384;13.420;2023-04-01T12:05:38;74.30;;;39.77;;
11255;SDS011;5685;52.384;13.420;2023-04-01T12:08:45;74.00;;;39.77;;
11255;SDS011;5685;52.384;13.420;2023-04-01T12:11:56;74.10;;;39.83;;
11255;SDS011;5685;52.384;13.420;2023-04-01T12:15:10;74.10;;;39.80;;
11255;SDS011;5685;52.384;13.420;2023-04-01T12:18:20;74.33;;;39.87;;
11255;SDS011;5685;52.384;13.420;2023-04-01T12:21:28;74.70;;;40.00;;
11255;SDS011;5685;52.384;13.420;2023-04-01T12:24:44;74.53;;;39.90;;
11255;SDS011;5685;52.384;13.420;2023-04-01T12:27:59;74.40;;;39.93;;
11255;SDS011;5685;52.384;13.420;2023-04-01T12:31:12;74.73;;;40.07;;
11255;SDS011;5685;52.384;13.420;2023-04-01T12:34:36;74.37;;;39.90;;
11255;SDS011;5685;52.384;13.420;2023-04-01T12:37:48;74.23;;;39.70;;
11255;SDS011;5685;52.384;13.420;2023-04-01T12:41:00;74.23;;;39.90;;
11255;SDS011;5685;52.384;13.420;2023-04-01T12:44:28;74.30;;;39.80;;
11255;SDS011;5685;52.384;13.420;2023-04-01T12:47:57;73.80;;;39.60;;
11255;SDS011;5685;52.384;13.420;2023-04-01T12:51:24;74.17;;;39.70;;
11255;SDS011;5685;52.384;13.420;2023-04-01T12:54:52;74.00;;;39.60;;
11255;SDS011;5685;52.384;13.420;2023-04-01T13:01:59;74.07;;;39.67;;
11255;SDS011;5685;52.384;13.420;2023-04-01T13:08:35;74.20;;;39.67;;
11255;SDS011;5685;52.384;13.420;2023-04-01T13:11:48;74.10;;;39.60;;
11255;SDS011;5685;52.384;13.420;2023-04-01T13:15:17;74.00;;;39.70;;
11255;SDS011;5685;52.384;13.420;2023-04-01T13:18:31;74.37;;;39.70;;
11255;SDS011;5685;52.384;13.420;2023-04-01T13:21:41;74.23;;;39.70;;
11255;SDS011;5685;52.384;13.420;2023-04-01T13:24:51;74.50;;;39.80;;
11255;SDS011;5685;52.384;13.420;2023-04-01T13:28:01;74.37;;;39.77;;
11255;SDS011;5685;52.384;13.420;2023-04-01T13:31:13;74.07;;;39.70;;
11255;SDS011;5685;52.384;13.420;2023-04-01T13:34:32;74.37;;;39.90;;
11255;SDS011;5685;52.384;13.420;2023-04-01T13:37:44;74.40;;;39.80;;
11255;SDS011;5685;52.384;13.420;2023-04-01T13:40:57;74.30;;;39.80;;
11255;SDS011;5685;52.384;13.420;2023-04-01T13:44:06;74.30;;;39.80;;
11255;SDS011;5685;52.384;13.420;2023-04-01T13:47:23;74.57;;;39.80;;
11255;SDS011;5685;52.384;13.420;2023-04-01T13:57:56;74.33;;;39.80;;
11255;SDS011;5685;52.384;13.420;2023-04-01T14:01:17;74.30;;;39.90;;
11255;SDS011;5685;52.384;13.420;2023-04-01T14:04:30;74.17;;;39.70;;
11255;SDS011;5685;52.384;13.420;2023-04-01T14:07:57;74.10;;;39.70;;
11255;SDS011;5685;52.384;13.420;2023-04-01T14:11:09;74.53;;;39.80;;
11255;SDS011;5685;52.384;13.420;2023-04-01T14:14:18;74.20;;;39.90;;
11255;SDS011;5685;52.384;13.420;2023-04-01T14:17:31;74.20;;;39.80;;
11255;SDS011;5685;52.384;13.420;2023-04-01T14:20:47;74.37;;;39.80;;
11255;SDS011;5685;52.384;13.420;2023-04-01T14:24:00;74.10;;;39.70;;
11255;SDS011;5685;52.384;13.420;2023-04-01T14:27:21;74.33;;;39.87;;
11255;SDS011;5685;52.384;13.420;2023-04-01T14:30:42;74.37;;;39.80;;
11255;SDS011;5685;52.384;13.420;2023-04-01T14:33:54;74.07;;;39.73;;
11255;SDS011;5685;52.384;13.420;2023-04-01T14:37:05;74.43;;;39.90;;
11255;SDS011;5685;52.384;13.420;2023-04-01T14:40:21;74.47;;;40.00;;
11255;SDS011;5685;52.384;13.420;2023-04-01T14:43:47;74.47;;;40.00;;
11255;SDS011;5685;52.384;13.420;2023-04-01T14:47:28;74.07;;;39.70;;
11255;SDS011;5685;52.384;13.420;2023-04-01T14:50:43;74.20;;;39.80;;
11255;SDS011;5685;52.384;13.420;2023-04-01T14:53:52;73.87;;;39.67;;
11255;SDS011;5685;52.384;13.420;2023-04-01T14:57:03;74.00;;;39.77;;
11255;SDS011;5685;52.384;13.420;2023-04-01T15:00:13;74.10;;;39.80;;
11255;SDS011;5685;52.384;13.420;2023-04-01T15:03:19;74.07;;;39.80;;
11255;SDS011;5685;52.384;13.420;2023-04-01T15:09:52;74.43;;;40.00;;
11255;SDS011;5685;52.384;13.420;2023-04-01T15:13:04;74.13;;;39.80;;
11255;SDS011;5685;52.384;13.420;2023-04-01T15:16:13;73.60;;;39.60;;
11255;SDS011;5685;52.384;13.420;2023-04-01T15:19:24;74.00;;;39.73;;
11255;SDS011;5685;52.384;13.420;2023-04-01T15:22:38;74.13;;;39.80;;
11255;SDS011;5685;52.384;13.420;2023-04-01T15:25:51;74.00;;;39.80;;
11255;SDS011;5685;52.384;13.420;2023-04-01T15:29:34;74.10;;;39.87;;
11255;SDS011;5685;52.384;13.420;2023-04-01T15:33:13;73.67;;;39.60;;
11255;SDS011;5685;52.384;13.420;2023-04-01T15:36:24;73.73;;;39.57;;
11255;SDS011;5685;52.384;13.420;2023-04-01T15:39:38;73.77;;;39.70;;
11255;SDS011;5685;52.384;13.420;2023-04-01T15:42:51;73.80;;;39.70;;
11255;SDS011;5685;52.384;13.420;2023-04-01T15:45:58;73.67;;;39.60;;
11255;SDS011;5685;52.384;13.420;2023-04-01T15:49:30;73.67;;;39.60;;
11255;SDS011;5685;52.384;13.420;2023-04-01T15:52:38;73.80;;;39.80;;
11255;SDS011;5685;52.384;13.420;2023-04-01T15:55:45;73.47;;;39.53;;
11255;SDS011;5685;52.384;13.420;2023-04-01T15:58:53;73.90;;;39.77;;
11255;SDS011;5685;52.384;13.420;2023-04-01T16:02:07;74.00;;;39.73;;
11255;SDS011;5685;52.384;13.420;2023-04-01T16:08:50;73.73;;;39.70;;
11255;SDS011;5685;52.384;13.420;2023-04-01T16:12:07;73.60;;;39.67;;
11255;SDS011;5685;52.384;13.420;2023-04-01T16:15:20;73.50;;;39.60;;
11255;SDS011;5685;52.384;13.420;2023-04-01T16:18:34;73.90;;;39.80;;
11255;SDS011;5685;52.384;13.420;2023-04-01T16:21:46;73.53;;;39.60;;
11255;SDS011;5685;52.384;13.420;2023-04-01T16:24:53;73.53;;;39.70;;
11255;SDS011;5685;52.384;13.420;2023-04-01T16:28:15;73.60;;;39.57;;
11255;SDS011;5685;52.384;13.420;2023-04-01T16:31:27;73.60;;;39.60;;
11255;SDS011;5685;52.384;13.420;2023-04-01T16:34:34;73.67;;;39.70;;
11255;SDS011;5685;52.384;13.420;2023-04-01T16:37:39;73.50;;;39.50;;
11255;SDS011;5685;52.384;13.420;2023-04-01T16:40:50;73.73;;;39.80;;
11255;SDS011;5685;52.384;13.420;2023-04-01T16:44:09;73.70;;;39.67;;
11255;SDS011;5685;52.384;13.420;2023-04-01T16:47:15;73.83;;;39.80;;
11255;SDS011;5685;52.384;13.420;2023-04-01T16:50:20;73.80;;;39.70;;
11255;SDS011;5685;52.384;13.420;2023-04-01T16:53:25;73.80;;;39.70;;
11255;SDS011;5685;52.384;13.420;2023-04-01T16:56:38;73.53;;;39.70;;
11255;SDS011;5685;52.384;13.420;2023-04-01T16:59:46;74.00;;;39.80;;
11255;SDS011;5685;52.384;13.420;2023-04-01T17:02:56;74.10;;;39.90;;
11255;SDS011;5685;52.384;13.420;2023-04-01T17:06:07;73.80;;;39.77;;
11255;SDS011;5685;52.384;13.420;2023-04-01T17:09:20;73.93;;;39.97;;
11255;SDS011;5685;52.384;13.420;2023-04-01T17:12:32;73.83;;;39.80;;
11255;SDS011;5685;52.384;13.420;2023-04-01T17:15:41;73.80;;;39.80;;
11255;SDS011;5685;52.384;13.420;2023-04-01T17:18:49;73.90;;;39.87;;
11255;SDS011;5685;52.384;13.420;2023-04-01T17:22:02;73.90;;;39.80;;
11255;SDS011;5685;52.384;13.420;2023-04-01T17:28:40;73.83;;;39.67;;
11255;SDS011;5685;52.384;13.420;2023-04-01T17:31:52;73.30;;;39.53;;
11255;SDS011;5685;52.384;13.420;2023-04-01T17:35:00;73.90;;;39.80;;
11255;SDS011;5685;52.384;13.420;2023-04-01T17:38:12;73.43;;;39.70;;
11255;SDS011;5685;52.384;13.420;2023-04-01T17:41:21;73.50;;;39.77;;
11255;SDS011;5685;52.384;13.420;2023-04-01T17:44:33;74.00;;;39.80;;
11255;SDS011;5685;52.384;13.420;2023-04-01T17:47:43;73.90;;;39.90;;
11255;SDS011;5685;52.384;13.420;2023-04-01T17:50:53;73.40;;;39.57;;
11255;SDS011;5685;52.384;13.420;2023-04-01T17:54:19;73.70;;;39.60;;
11255;SDS011;5685;52.384;13.420;2023-04-01T17:57:39;73.53;;;39.60;;
11255;SDS011;5685;52.384;13.420;2023-04-01T18:00:50;73.60;;;39.73;;
11255;SDS011;5685;52.384;13.420;2023-04-01T18:04:34;73.83;;;39.87;;
11255;SDS011;5685;52.384;13.420;2023-04-01T18:11:19;73.57;;;39.60;;
11255;SDS011;5685;52.384;13.420;2023-04-01T18:14:42;73.73;;;39.73;;
11255;SDS011;5685;52.384;13.420;2023-04-01T18:17:54;73.37;;;39.63;;
11255;SDS011;5685;52.384;13.420;2023-04-01T18:21:09;73.40;;;39.70;;
11255;SDS011;5685;52.384;13.420;2023-04-01T18:24:18;73.50;;;39.70;;
11255;SDS011;5685;52.384;13.420;2023-04-01T18:27:29;73.13;;;39.63;;
11255;SDS011;5685;52.384;13.420;2023-04-01T18:30:33;72.93;;;39.53;;
11255;SDS011;5685;52.384;13.420;2023-04-01T18:33:41;73.27;;;39.70;;
11255;SDS011;5685;52.384;13.420;2023-04-01T18:36:53;73.20;;;39.60;;
11255;SDS011;5685;52.384;13.420;2023-04-01T18:39:57;72.77;;;39.40;;
11255;SDS011;5685;52.384;13.420;2023-04-01T18:43:11;73.10;;;39.60;;
11255;SDS011;5685;52.384;13.420;2023-04-01T18:46:21;73.10;;;39.60;;
11255;SDS011;5685;52.384;13.420;2023-04-01T18:49:29;73.07;;;39.50;;
11255;SDS011;5685;52.384;13.420;2023-04-01T18:52:36;73.20;;;39.60;;
11255;SDS011;5685;52.384;13.420;2023-04-01T18:55:40;73.17;;;39.60;;
11255;SDS011;5685;52.384;13.420;2023-04-01T18:58:46;72.83;;;39.40;;
11255;SDS011;5685;52.384;13.420;2023-04-01T19:01:52;72.90;;;39.50;;
11255;SDS011;5685;52.384;13.420;2023-04-01T19:05:03;73.33;;;39.70;;
11255;SDS011;5685;52.384;13.420;2023-04-01T19:08:19;73.07;;;39.53;;
11255;SDS011;5685;52.384;13.420;2023-04-01T19:11:30;72.83;;;39.47;;
11255;SDS011;5685;52.384;13.420;2023-04-01T19:14:42;73.20;;;39.57;;
11255;SDS011;5685;52.384;13.420;2023-04-01T19:18:08;72.93;;;39.50;;
11255;SDS011;5685;52.384;13.420;2023-04-01T19:21:42;73.00;;;39.50;;
11255;SDS011;5685;52.384;13.420;2023-04-01T19:24:53;73.03;;;39.60;;
11255;SDS011;5685;52.384;13.420;2023-04-01T19:28:20;72.47;;;39.27;;
11255;SDS011;5685;52.384;13.420;2023-04-01T19:31:33;73.60;;;39.70;;
11255;SDS011;5685;52.384;13.420;2023-04-01T19:34:44;72.80;;;39.47;;
11255;SDS011;5685;52.384;13.420;2023-04-01T19:37:51;73.13;;;39.60;;
11255;SDS011;5685;52.384;13.420;2023-04-01T19:41:00;72.80;;;39.40;;
11255;SDS011;5685;52.384;13.420;2023-04-01T19:47:34;72.63;;;39.30;;
11255;SDS011;5685;52.384;13.420;2023-04-01T19:50:46;73.10;;;39.60;;
11255;SDS011;5685;52.384;13.420;2023-04-01T19:53:52;73.23;;;39.67;;
11255;SDS011;5685;52.384;13.420;2023-04-01T19:57:02;73.00;;;39.53;;
11255;SDS011;5685;52.384;13.420;2023-04-01T20:00:15;72.53;;;39.37;;
11255;SDS011;5685;52.384;13.420;2023-04-01T20:03:30;72.73;;;39.50;;
11255;SDS011;5685;52.384;13.420;2023-04-01T20:06:41;73.23;;;39.70;;
11255;SDS011;5685;52.384;13.420;2023-04-01T20:09:50;72.37;;;39.27;;